sensor_id;sensor_type;location;lat;lon;timestamp;P1;durP1;ratioP1;P2;durP2;ratioP2
4053;SDS011;2042;47.956;9.222;2024-03-02T00:00:10;25.07;;;14.47;;
4053;SDS011;2042;47.956;9.222;2024-03-02T00:02:41;24.50;;;14.73;;
4053;SDS011;2042;47.956;9.222;2024-03-02T00:05:07;36.03;;;16.90;;
4053;SDS011;2042;47.956;9.222;2024-03-02T00:07:36;27.70;;;15.97;;
4053;SDS011;2042;47.956;9.222;2024-03-02T00:10:07;27.77;;;15.73;;
4053;SDS011;2042;47.956;9.222;2024-03-02T00:12:37;25.73;;;14.73;;
4053;SDS011;2042;47.956;9.222;2024-03-02T00:15:14;24.07;;;14.47;;
4053;SDS011;2042;47.956;9.222;2024-03-02T00:18:01;34.40;;;15.77;;
4053;SDS011;2042;47.956;9.222;2024-03-02T00:20:27;80.43;;;19.10;;
4053;SDS011;2042;47.956;9.222;2024-03-02T00:22:55;65.30;;;17.10;;
4053;SDS011;2042;47.956;9.222;2024-03-02T00:25:34;136.90;;;21.23;;
4053;SDS011;2042;47.956;9.222;2024-03-02T00:28:04;83.23;;;18.90;;
4053;SDS011;2042;47.956;9.222;2024-03-02T00:33:17;91.17;;;17.83;;
4053;SDS011;2042;47.956;9.222;2024-03-02T00:35:46;79.67;;;19.90;;
4053;SDS011;2042;47.956;9.222;2024-03-02T00:38:11;71.03;;;17.33;;
4053;SDS011;2042;47.956;9.222;2024-03-02T00:40:39;45.67;;;16.17;;
4053;SDS011;2042;47.956;9.222;2024-03-02T00:43:05;42.83;;;17.00;;
4053;SDS011;2042;47.956;9.222;2024-03-02T00:45:30;137.17;;;24.57;;
4053;SDS011;2042;47.956;9.222;2024-03-02T00:47:57;104.57;;;23.30;;
4053;SDS011;2042;47.956;9.222;2024-03-02T00:50:22;103.30;;;21.40;;
4053;SDS011;2042;47.956;9.222;2024-03-02T00:52:48;66.40;;;16.50;;
4053;SDS011;2042;47.956;9.222;2024-03-02T00:55:14;63.50;;;18.33;;
4053;SDS011;2042;47.956;9.222;2024-03-02T00:57:39;47.87;;;16.40;;
4053;SDS011;2042;47.956;9.222;2024-03-02T01:00:06;23.27;;;13.30;;
4053;SDS011;2042;47.956;9.222;2024-03-02T01:02:35;23.50;;;15.27;;
4053;SDS011;2042;47.956;9.222;2024-03-02T01:05:01;24.83;;;12.97;;
4053;SDS011;2042;47.956;9.222;2024-03-02T01:07:26;19.97;;;11.90;;
4053;SDS011;2042;47.956;9.222;2024-03-02T01:09:52;22.90;;;12.40;;
4053;SDS011;2042;47.956;9.222;2024-03-02T01:12:17;34.20;;;15.27;;
4053;SDS011;2042;47.956;9.222;2024-03-02T01:14:43;116.10;;;25.27;;
4053;SDS011;2042;47.956;9.222;2024-03-02T01:17:09;124.93;;;22.17;;
4053;SDS011;2042;47.956;9.222;2024-03-02T01:19:35;48.27;;;17.70;;
4053;SDS011;2042;47.956;9.222;2024-03-02T01:22:01;54.77;;;19.00;;
4053;SDS011;2042;47.956;9.222;2024-03-02T01:24:26;45.27;;;15.13;;
4053;SDS011;2042;47.956;9.222;2024-03-02T01:26:52;46.53;;;17.60;;
4053;SDS011;2042;47.956;9.222;2024-03-02T01:29:17;57.53;;;15.90;;
4053;SDS011;2042;47.956;9.222;2024-03-02T01:31:43;94.87;;;18.80;;
4053;SDS011;2042;47.956;9.222;2024-03-02T01:34:10;63.83;;;16.17;;
4053;SDS011;2042;47.956;9.222;2024-03-02T01:36:37;101.73;;;23.67;;
4053;SDS011;2042;47.956;9.222;2024-03-02T01:39:03;95.87;;;17.60;;
4053;SDS011;2042;47.956;9.222;2024-03-02T01:41:28;94.67;;;21.00;;
4053;SDS011;2042;47.956;9.222;2024-03-02T01:43:54;44.60;;;15.50;;
4053;SDS011;2042;47.956;9.222;2024-03-02T01:46:19;38.47;;;14.23;;
4053;SDS011;2042;47.956;9.222;2024-03-02T01:48:45;138.67;;;26.67;;
4053;SDS011;2042;47.956;9.222;2024-03-02T01:51:11;188.83;;;28.43;;
4053;SDS011;2042;47.956;9.222;2024-03-02T01:53:36;55.80;;;16.73;;
4053;SDS011;2042;47.956;9.222;2024-03-02T01:56:02;48.97;;;17.27;;
4053;SDS011;2042;47.956;9.222;2024-03-02T01:58:28;46.20;;;16.37;;
4053;SDS011;2042;47.956;9.222;2024-03-02T02:00:54;116.90;;;27.63;;
4053;SDS011;2042;47.956;9.222;2024-03-02T02:03:20;96.07;;;27.17;;
4053;SDS011;2042;47.956;9.222;2024-03-02T02:05:45;100.30;;;22.30;;
4053;SDS011;2042;47.956;9.222;2024-03-02T02:08:13;103.30;;;23.27;;
4053;SDS011;2042;47.956;9.222;2024-03-02T02:10:38;61.47;;;16.80;;
4053;SDS011;2042;47.956;9.222;2024-03-02T02:13:04;77.07;;;17.00;;
4053;SDS011;2042;47.956;9.222;2024-03-02T02:15:30;147.27;;;23.43;;
4053;SDS011;2042;47.956;9.222;2024-03-02T02:17:57;147.20;;;19.67;;
4053;SDS011;2042;47.956;9.222;2024-03-02T02:20:23;46.53;;;15.60;;
4053;SDS011;2042;47.956;9.222;2024-03-02T02:23:07;92.63;;;23.70;;
4053;SDS011;2042;47.956;9.222;2024-03-02T02:25:34;69.40;;;15.83;;
4053;SDS011;2042;47.956;9.222;2024-03-02T02:28:00;105.10;;;18.10;;
4053;SDS011;2042;47.956;9.222;2024-03-02T02:30:28;33.83;;;15.10;;
4053;SDS011;2042;47.956;9.222;2024-03-02T02:32:55;28.83;;;12.10;;
4053;SDS011;2042;47.956;9.222;2024-03-02T02:35:21;52.73;;;14.93;;
4053;SDS011;2042;47.956;9.222;2024-03-02T02:37:47;27.83;;;12.67;;
4053;SDS011;2042;47.956;9.222;2024-03-02T02:40:13;33.20;;;14.43;;
4053;SDS011;2042;47.956;9.222;2024-03-02T02:42:39;65.53;;;15.80;;
4053;SDS011;2042;47.956;9.222;2024-03-02T02:45:05;32.37;;;12.03;;
4053;SDS011;2042;47.956;9.222;2024-03-02T02:47:31;37.37;;;12.77;;
4053;SDS011;2042;47.956;9.222;2024-03-02T02:50:00;20.17;;;11.53;;
4053;SDS011;2042;47.956;9.222;2024-03-02T02:52:30;40.27;;;12.37;;
4053;SDS011;2042;47.956;9.222;2024-03-02T02:55:04;39.43;;;13.00;;
4053;SDS011;2042;47.956;9.222;2024-03-02T02:57:34;66.53;;;14.30;;
4053;SDS011;2042;47.956;9.222;2024-03-02T03:00:04;44.93;;;13.33;;
4053;SDS011;2042;47.956;9.222;2024-03-02T03:02:35;27.70;;;12.77;;
4053;SDS011;2042;47.956;9.222;2024-03-02T03:05:04;35.43;;;12.27;;
4053;SDS011;2042;47.956;9.222;2024-03-02T03:07:31;30.47;;;12.20;;
4053;SDS011;2042;47.956;9.222;2024-03-02T03:09:58;28.10;;;13.13;;
4053;SDS011;2042;47.956;9.222;2024-03-02T03:12:23;31.60;;;12.03;;
4053;SDS011;2042;47.956;9.222;2024-03-02T03:14:49;20.97;;;10.67;;
4053;SDS011;2042;47.956;9.222;2024-03-02T03:17:14;50.87;;;16.57;;
4053;SDS011;2042;47.956;9.222;2024-03-02T03:19:40;45.87;;;11.50;;
4053;SDS011;2042;47.956;9.222;2024-03-02T03:22:06;27.07;;;10.43;;
4053;SDS011;2042;47.956;9.222;2024-03-02T03:24:32;23.40;;;11.77;;
4053;SDS011;2042;47.956;9.222;2024-03-02T03:26:58;35.63;;;10.67;;
4053;SDS011;2042;47.956;9.222;2024-03-02T03:29:23;27.43;;;9.53;;
4053;SDS011;2042;47.956;9.222;2024-03-02T03:31:49;31.60;;;10.17;;
4053;SDS011;2042;47.956;9.222;2024-03-02T03:34:15;24.03;;;8.43;;
4053;SDS011;2042;47.956;9.222;2024-03-02T03:36:41;20.80;;;9.00;;
4053;SDS011;2042;47.956;9.222;2024-03-02T03:39:07;30.10;;;9.23;;
4053;SDS011;2042;47.956;9.222;2024-03-02T03:41:33;13.20;;;8.10;;
4053;SDS011;2042;47.956;9.222;2024-03-02T03:43:58;22.67;;;9.03;;
4053;SDS011;2042;47.956;9.222;2024-03-02T03:46:24;18.47;;;8.07;;
4053;SDS011;2042;47.956;9.222;2024-03-02T03:48:49;45.27;;;10.57;;
4053;SDS011;2042;47.956;9.222;2024-03-02T03:51:15;49.73;;;9.10;;
4053;SDS011;2042;47.956;9.222;2024-03-02T03:53:41;59.97;;;23.17;;
4053;SDS011;2042;47.956;9.222;2024-03-02T03:56:06;35.97;;;11.30;;
4053;SDS011;2042;47.956;9.222;2024-03-02T03:58:32;13.97;;;7.70;;
4053;SDS011;2042;47.956;9.222;2024-03-02T04:00:58;27.30;;;8.97;;
4053;SDS011;2042;47.956;9.222;2024-03-02T04:03:23;29.40;;;8.37;;
4053;SDS011;2042;47.956;9.222;2024-03-02T04:05:49;22.50;;;8.80;;
4053;SDS011;2042;47.956;9.222;2024-03-02T04:08:15;39.77;;;10.17;;
4053;SDS011;2042;47.956;9.222;2024-03-02T04:10:40;33.90;;;11.23;;
4053;SDS011;2042;47.956;9.222;2024-03-02T04:13:07;40.73;;;11.60;;
4053;SDS011;2042;47.956;9.222;2024-03-02T04:15:32;56.03;;;10.80;;
4053;SDS011;2042;47.956;9.222;2024-03-02T04:17:58;27.97;;;10.33;;
4053;SDS011;2042;47.956;9.222;2024-03-02T04:20:24;18.67;;;8.30;;
4053;SDS011;2042;47.956;9.222;2024-03-02T04:22:50;35.17;;;8.70;;
4053;SDS011;2042;47.956;9.222;2024-03-02T04:25:16;11.53;;;7.70;;
4053;SDS011;2042;47.956;9.222;2024-03-02T04:27:41;20.57;;;7.47;;
4053;SDS011;2042;47.956;9.222;2024-03-02T04:30:07;43.00;;;9.13;;
4053;SDS011;2042;47.956;9.222;2024-03-02T04:32:33;17.53;;;8.03;;
4053;SDS011;2042;47.956;9.222;2024-03-02T04:35:01;19.30;;;7.57;;
4053;SDS011;2042;47.956;9.222;2024-03-02T04:37:26;24.23;;;9.70;;
4053;SDS011;2042;47.956;9.222;2024-03-02T04:39:52;15.90;;;7.77;;
4053;SDS011;2042;47.956;9.222;2024-03-02T04:42:17;22.17;;;7.60;;
4053;SDS011;2042;47.956;9.222;2024-03-02T04:44:43;15.90;;;8.33;;
4053;SDS011;2042;47.956;9.222;2024-03-02T04:47:09;13.80;;;8.00;;
4053;SDS011;2042;47.956;9.222;2024-03-02T04:49:34;19.13;;;7.80;;
4053;SDS011;2042;47.956;9.222;2024-03-02T04:52:00;28.23;;;9.33;;
4053;SDS011;2042;47.956;9.222;2024-03-02T04:54:26;43.07;;;9.83;;
4053;SDS011;2042;47.956;9.222;2024-03-02T04:56:51;17.63;;;7.40;;
4053;SDS011;2042;47.956;9.222;2024-03-02T04:59:17;18.07;;;7.87;;
4053;SDS011;2042;47.956;9.222;2024-03-02T05:01:43;21.40;;;9.80;;
4053;SDS011;2042;47.956;9.222;2024-03-02T05:04:10;29.47;;;8.10;;
4053;SDS011;2042;47.956;9.222;2024-03-02T05:06:38;35.37;;;8.80;;
4053;SDS011;2042;47.956;9.222;2024-03-02T05:09:05;40.80;;;10.33;;
4053;SDS011;2042;47.956;9.222;2024-03-02T05:11:31;38.17;;;10.87;;
4053;SDS011;2042;47.956;9.222;2024-03-02T05:14:02;21.27;;;9.50;;
4053;SDS011;2042;47.956;9.222;2024-03-02T05:16:28;41.30;;;9.47;;
4053;SDS011;2042;47.956;9.222;2024-03-02T05:18:54;23.50;;;9.40;;
4053;SDS011;2042;47.956;9.222;2024-03-02T05:21:20;28.20;;;9.90;;
4053;SDS011;2042;47.956;9.222;2024-03-02T05:23:46;27.30;;;9.53;;
4053;SDS011;2042;47.956;9.222;2024-03-02T05:26:11;15.33;;;8.80;;
4053;SDS011;2042;47.956;9.222;2024-03-02T05:28:40;20.40;;;9.30;;
4053;SDS011;2042;47.956;9.222;2024-03-02T05:31:05;17.90;;;8.60;;
4053;SDS011;2042;47.956;9.222;2024-03-02T05:33:32;33.17;;;9.53;;
4053;SDS011;2042;47.956;9.222;2024-03-02T05:35:58;10.63;;;8.50;;
4053;SDS011;2042;47.956;9.222;2024-03-02T05:38:26;20.67;;;7.93;;
4053;SDS011;2042;47.956;9.222;2024-03-02T05:40:52;15.57;;;8.13;;
4053;SDS011;2042;47.956;9.222;2024-03-02T05:43:18;19.63;;;9.20;;
4053;SDS011;2042;47.956;9.222;2024-03-02T05:45:45;33.73;;;9.80;;
4053;SDS011;2042;47.956;9.222;2024-03-02T05:48:11;23.53;;;8.30;;
4053;SDS011;2042;47.956;9.222;2024-03-02T05:50:36;19.87;;;9.03;;
4053;SDS011;2042;47.956;9.222;2024-03-02T05:53:02;17.87;;;8.57;;
4053;SDS011;2042;47.956;9.222;2024-03-02T05:55:28;27.17;;;9.43;;
4053;SDS011;2042;47.956;9.222;2024-03-02T05:57:53;37.47;;;11.27;;
4053;SDS011;2042;47.956;9.222;2024-03-02T06:00:31;23.57;;;9.07;;
4053;SDS011;2042;47.956;9.222;2024-03-02T06:02:57;22.27;;;8.07;;
4053;SDS011;2042;47.956;9.222;2024-03-02T06:05:23;41.93;;;9.70;;
4053;SDS011;2042;47.956;9.222;2024-03-02T06:07:49;19.27;;;9.60;;
4053;SDS011;2042;47.956;9.222;2024-03-02T06:10:15;19.37;;;7.77;;
4053;SDS011;2042;47.956;9.222;2024-03-02T06:12:41;20.17;;;7.83;;
4053;SDS011;2042;47.956;9.222;2024-03-02T06:15:07;12.63;;;8.37;;
4053;SDS011;2042;47.956;9.222;2024-03-02T06:17:34;18.30;;;8.73;;
4053;SDS011;2042;47.956;9.222;2024-03-02T06:20:00;9.93;;;8.50;;
4053;SDS011;2042;47.956;9.222;2024-03-02T06:22:26;18.40;;;7.90;;
4053;SDS011;2042;47.956;9.222;2024-03-02T06:24:52;58.95;;;15.52;;
4053;SDS011;2042;47.956;9.222;2024-03-02T06:27:17;25.40;;;10.97;;
4053;SDS011;2042;47.956;9.222;2024-03-02T06:29:43;20.27;;;8.67;;
4053;SDS011;2042;47.956;9.222;2024-03-02T06:32:09;16.23;;;8.23;;
4053;SDS011;2042;47.956;9.222;2024-03-02T06:34:35;13.00;;;8.70;;
4053;SDS011;2042;47.956;9.222;2024-03-02T06:37:00;26.20;;;8.63;;
4053;SDS011;2042;47.956;9.222;2024-03-02T06:39:26;16.03;;;7.83;;
4053;SDS011;2042;47.956;9.222;2024-03-02T06:41:51;12.70;;;7.57;;
4053;SDS011;2042;47.956;9.222;2024-03-02T06:44:17;13.57;;;8.47;;
4053;SDS011;2042;47.956;9.222;2024-03-02T06:46:43;27.87;;;8.13;;
4053;SDS011;2042;47.956;9.222;2024-03-02T06:49:08;17.73;;;8.50;;
4053;SDS011;2042;47.956;9.222;2024-03-02T06:51:35;16.53;;;9.33;;
4053;SDS011;2042;47.956;9.222;2024-03-02T06:54:01;25.07;;;8.57;;
4053;SDS011;2042;47.956;9.222;2024-03-02T06:56:27;20.93;;;8.93;;
4053;SDS011;2042;47.956;9.222;2024-03-02T06:58:52;25.73;;;8.37;;
4053;SDS011;2042;47.956;9.222;2024-03-02T07:01:18;25.73;;;8.87;;
4053;SDS011;2042;47.956;9.222;2024-03-02T07:03:45;30.93;;;10.30;;
4053;SDS011;2042;47.956;9.222;2024-03-02T07:06:11;23.23;;;9.23;;
4053;SDS011;2042;47.956;9.222;2024-03-02T07:08:36;20.93;;;9.13;;
4053;SDS011;2042;47.956;9.222;2024-03-02T07:11:02;33.90;;;9.97;;
4053;SDS011;2042;47.956;9.222;2024-03-02T07:13:28;22.07;;;8.03;;
4053;SDS011;2042;47.956;9.222;2024-03-02T07:15:53;16.20;;;8.20;;
4053;SDS011;2042;47.956;9.222;2024-03-02T07:18:25;31.47;;;9.07;;
4053;SDS011;2042;47.956;9.222;2024-03-02T07:20:50;22.00;;;9.10;;
4053;SDS011;2042;47.956;9.222;2024-03-02T07:23:16;37.83;;;9.60;;
4053;SDS011;2042;47.956;9.222;2024-03-02T07:25:42;17.00;;;8.30;;
4053;SDS011;2042;47.956;9.222;2024-03-02T07:28:08;23.43;;;7.97;;
4053;SDS011;2042;47.956;9.222;2024-03-02T07:30:33;10.87;;;7.80;;
4053;SDS011;2042;47.956;9.222;2024-03-02T07:32:59;10.13;;;6.67;;
4053;SDS011;2042;47.956;9.222;2024-03-02T07:35:25;21.70;;;7.93;;
4053;SDS011;2042;47.956;9.222;2024-03-02T07:37:56;20.23;;;6.57;;
4053;SDS011;2042;47.956;9.222;2024-03-02T07:40:22;17.53;;;9.77;;
4053;SDS011;2042;47.956;9.222;2024-03-02T07:46:10;22.33;;;7.90;;
4053;SDS011;2042;47.956;9.222;2024-03-02T07:48:36;16.40;;;8.97;;
4053;SDS011;2042;47.956;9.222;2024-03-02T07:51:02;35.37;;;8.77;;
4053;SDS011;2042;47.956;9.222;2024-03-02T08:10:31;18.37;;;7.63;;
4053;SDS011;2042;47.956;9.222;2024-03-02T08:12:58;13.30;;;8.30;;
4053;SDS011;2042;47.956;9.222;2024-03-02T08:15:24;17.37;;;8.23;;
4053;SDS011;2042;47.956;9.222;2024-03-02T08:17:49;13.30;;;7.87;;
4053;SDS011;2042;47.956;9.222;2024-03-02T08:20:15;28.67;;;9.63;;
4053;SDS011;2042;47.956;9.222;2024-03-02T08:22:41;33.10;;;10.47;;
4053;SDS011;2042;47.956;9.222;2024-03-02T08:25:07;37.20;;;10.30;;
4053;SDS011;2042;47.956;9.222;2024-03-02T08:27:33;68.77;;;11.40;;
4053;SDS011;2042;47.956;9.222;2024-03-02T08:29:59;104.67;;;22.90;;
4053;SDS011;2042;47.956;9.222;2024-03-02T08:32:24;28.00;;;9.10;;
4053;SDS011;2042;47.956;9.222;2024-03-02T08:34:52;27.30;;;9.07;;
4053;SDS011;2042;47.956;9.222;2024-03-02T08:37:18;48.07;;;9.93;;
4053;SDS011;2042;47.956;9.222;2024-03-02T08:39:44;24.50;;;7.20;;
4053;SDS011;2042;47.956;9.222;2024-03-02T08:42:10;13.70;;;6.83;;
4053;SDS011;2042;47.956;9.222;2024-03-02T08:44:36;52.53;;;11.47;;
4053;SDS011;2042;47.956;9.222;2024-03-02T08:47:02;57.97;;;11.27;;
4053;SDS011;2042;47.956;9.222;2024-03-02T08:49:28;56.67;;;12.50;;
4053;SDS011;2042;47.956;9.222;2024-03-02T08:51:53;20.57;;;7.13;;
4053;SDS011;2042;47.956;9.222;2024-03-02T08:54:20;44.10;;;7.70;;
4053;SDS011;2042;47.956;9.222;2024-03-02T08:56:47;31.67;;;8.23;;
4053;SDS011;2042;47.956;9.222;2024-03-02T08:59:13;34.40;;;9.77;;
4053;SDS011;2042;47.956;9.222;2024-03-02T09:01:39;12.50;;;5.63;;
4053;SDS011;2042;47.956;9.222;2024-03-02T09:04:06;20.47;;;5.80;;
4053;SDS011;2042;47.956;9.222;2024-03-02T09:06:34;18.33;;;5.40;;
4053;SDS011;2042;47.956;9.222;2024-03-02T09:08:59;15.03;;;5.40;;
4053;SDS011;2042;47.956;9.222;2024-03-02T09:11:25;23.63;;;6.93;;
4053;SDS011;2042;47.956;9.222;2024-03-02T09:13:51;7.97;;;5.50;;
4053;SDS011;2042;47.956;9.222;2024-03-02T09:16:18;8.07;;;5.20;;
4053;SDS011;2042;47.956;9.222;2024-03-02T09:18:43;7.13;;;4.97;;
4053;SDS011;2042;47.956;9.222;2024-03-02T09:21:09;9.20;;;5.10;;
4053;SDS011;2042;47.956;9.222;2024-03-02T09:23:35;13.70;;;5.10;;
4053;SDS011;2042;47.956;9.222;2024-03-02T09:26:00;19.40;;;6.60;;
4053;SDS011;2042;47.956;9.222;2024-03-02T09:28:26;11.33;;;5.47;;
4053;SDS011;2042;47.956;9.222;2024-03-02T09:30:52;8.90;;;5.30;;
4053;SDS011;2042;47.956;9.222;2024-03-02T09:33:17;8.70;;;5.63;;
4053;SDS011;2042;47.956;9.222;2024-03-02T09:35:43;10.20;;;5.77;;
4053;SDS011;2042;47.956;9.222;2024-03-02T09:38:09;9.33;;;5.00;;
4053;SDS011;2042;47.956;9.222;2024-03-02T09:40:35;5.17;;;4.57;;
4053;SDS011;2042;47.956;9.222;2024-03-02T09:43:01;4.97;;;4.33;;
4053;SDS011;2042;47.956;9.222;2024-03-02T09:45:28;5.20;;;4.70;;
4053;SDS011;2042;47.956;9.222;2024-03-02T09:47:55;4.73;;;4.20;;
4053;SDS011;2042;47.956;9.222;2024-03-02T09:50:20;8.47;;;5.30;;
4053;SDS011;2042;47.956;9.222;2024-03-02T09:52:48;5.90;;;5.27;;
4053;SDS011;2042;47.956;9.222;2024-03-02T09:55:15;6.70;;;4.50;;
4053;SDS011;2042;47.956;9.222;2024-03-02T09:57:43;5.50;;;5.00;;
4053;SDS011;2042;47.956;9.222;2024-03-02T10:00:08;6.37;;;5.73;;
4053;SDS011;2042;47.956;9.222;2024-03-02T10:02:39;5.10;;;4.60;;
4053;SDS011;2042;47.956;9.222;2024-03-02T10:05:08;5.43;;;4.93;;
4053;SDS011;2042;47.956;9.222;2024-03-02T10:07:34;5.10;;;4.60;;
4053;SDS011;2042;47.956;9.222;2024-03-02T10:10:12;4.10;;;3.70;;
4053;SDS011;2042;47.956;9.222;2024-03-02T10:12:38;4.50;;;4.13;;
4053;SDS011;2042;47.956;9.222;2024-03-02T10:15:04;4.80;;;4.40;;
4053;SDS011;2042;47.956;9.222;2024-03-02T10:17:32;4.00;;;3.60;;
4053;SDS011;2042;47.956;9.222;2024-03-02T10:19:58;5.53;;;5.03;;
4053;SDS011;2042;47.956;9.222;2024-03-02T10:22:24;4.10;;;3.80;;
4053;SDS011;2042;47.956;9.222;2024-03-02T10:24:51;4.83;;;4.43;;
4053;SDS011;2042;47.956;9.222;2024-03-02T10:27:27;5.00;;;4.60;;
4053;SDS011;2042;47.956;9.222;2024-03-02T10:29:53;4.77;;;4.43;;
4053;SDS011;2042;47.956;9.222;2024-03-02T10:32:19;4.83;;;4.43;;
4053;SDS011;2042;47.956;9.222;2024-03-02T10:34:47;4.07;;;3.77;;
4053;SDS011;2042;47.956;9.222;2024-03-02T10:37:15;4.37;;;4.07;;
4053;SDS011;2042;47.956;9.222;2024-03-02T10:39:42;4.60;;;4.20;;
4053;SDS011;2042;47.956;9.222;2024-03-02T10:42:11;4.17;;;3.87;;
4053;SDS011;2042;47.956;9.222;2024-03-02T10:44:39;4.20;;;3.90;;
4053;SDS011;2042;47.956;9.222;2024-03-02T10:47:06;6.40;;;4.43;;
4053;SDS011;2042;47.956;9.222;2024-03-02T10:49:32;4.17;;;3.87;;
4053;SDS011;2042;47.956;9.222;2024-03-02T10:51:58;4.53;;;4.13;;
4053;SDS011;2042;47.956;9.222;2024-03-02T10:54:25;5.05;;;4.65;;
4053;SDS011;2042;47.956;9.222;2024-03-02T10:57:01;4.67;;;4.37;;
4053;SDS011;2042;47.956;9.222;2024-03-02T10:59:33;4.53;;;4.10;;
4053;SDS011;2042;47.956;9.222;2024-03-02T11:02:01;4.40;;;4.10;;
4053;SDS011;2042;47.956;9.222;2024-03-02T11:04:28;4.80;;;4.40;;
4053;SDS011;2042;47.956;9.222;2024-03-02T11:07:00;4.33;;;4.03;;
4053;SDS011;2042;47.956;9.222;2024-03-02T11:09:29;4.40;;;4.10;;
4053;SDS011;2042;47.956;9.222;2024-03-02T11:14:40;4.53;;;4.23;;
4053;SDS011;2042;47.956;9.222;2024-03-02T11:17:09;4.90;;;4.47;;
4053;SDS011;2042;47.956;9.222;2024-03-02T11:19:37;5.20;;;4.70;;
4053;SDS011;2042;47.956;9.222;2024-03-02T11:22:04;5.00;;;4.60;;
4053;SDS011;2042;47.956;9.222;2024-03-02T11:24:31;4.00;;;3.70;;
4053;SDS011;2042;47.956;9.222;2024-03-02T11:27:00;3.30;;;3.10;;
4053;SDS011;2042;47.956;9.222;2024-03-02T11:32:26;3.10;;;2.80;;
4053;SDS011;2042;47.956;9.222;2024-03-02T11:34:51;5.80;;;3.97;;
4053;SDS011;2042;47.956;9.222;2024-03-02T11:37:17;3.90;;;3.60;;
4053;SDS011;2042;47.956;9.222;2024-03-02T11:39:50;4.30;;;4.00;;
4053;SDS011;2042;47.956;9.222;2024-03-02T11:42:17;4.20;;;3.90;;
4053;SDS011;2042;47.956;9.222;2024-03-02T11:44:44;5.03;;;4.53;;
4053;SDS011;2042;47.956;9.222;2024-03-02T11:47:12;4.33;;;4.03;;
4053;SDS011;2042;47.956;9.222;2024-03-02T11:52:14;4.63;;;4.23;;
4053;SDS011;2042;47.956;9.222;2024-03-02T11:54:41;4.40;;;4.00;;
4053;SDS011;2042;47.956;9.222;2024-03-02T11:57:16;5.03;;;4.63;;
4053;SDS011;2042;47.956;9.222;2024-03-02T11:59:44;4.57;;;4.17;;
4053;SDS011;2042;47.956;9.222;2024-03-02T12:02:19;4.80;;;4.40;;
4053;SDS011;2042;47.956;9.222;2024-03-02T12:04:46;4.80;;;4.43;;
4053;SDS011;2042;47.956;9.222;2024-03-02T12:07:20;4.13;;;3.83;;
4053;SDS011;2042;47.956;9.222;2024-03-02T12:09:49;4.50;;;4.10;;
4053;SDS011;2042;47.956;9.222;2024-03-02T12:12:25;4.47;;;4.10;;
4053;SDS011;2042;47.956;9.222;2024-03-02T12:14:52;4.27;;;3.87;;
4053;SDS011;2042;47.956;9.222;2024-03-02T12:17:20;4.70;;;4.30;;
4053;SDS011;2042;47.956;9.222;2024-03-02T12:19:46;3.47;;;3.27;;
4053;SDS011;2042;47.956;9.222;2024-03-02T12:22:12;2.97;;;2.77;;
4053;SDS011;2042;47.956;9.222;2024-03-02T12:24:38;3.37;;;3.10;;
4053;SDS011;2042;47.956;9.222;2024-03-02T12:27:04;4.03;;;3.50;;
4053;SDS011;2042;47.956;9.222;2024-03-02T12:29:31;4.17;;;3.70;;
4053;SDS011;2042;47.956;9.222;2024-03-02T12:31:59;3.60;;;3.30;;
4053;SDS011;2042;47.956;9.222;2024-03-02T12:34:26;3.23;;;3.00;;
4053;SDS011;2042;47.956;9.222;2024-03-02T12:36:52;3.43;;;3.13;;
4053;SDS011;2042;47.956;9.222;2024-03-02T12:39:21;2.57;;;2.37;;
4053;SDS011;2042;47.956;9.222;2024-03-02T12:41:50;3.20;;;2.90;;
4053;SDS011;2042;47.956;9.222;2024-03-02T12:44:16;2.90;;;2.70;;
4053;SDS011;2042;47.956;9.222;2024-03-02T12:46:45;4.60;;;4.27;;
4053;SDS011;2042;47.956;9.222;2024-03-02T12:49:12;4.47;;;4.07;;
4053;SDS011;2042;47.956;9.222;2024-03-02T12:51:41;4.07;;;3.77;;
4053;SDS011;2042;47.956;9.222;2024-03-02T12:54:07;3.97;;;3.67;;
4053;SDS011;2042;47.956;9.222;2024-03-02T12:56:35;5.63;;;5.13;;
4053;SDS011;2042;47.956;9.222;2024-03-02T12:59:01;4.93;;;4.53;;
4053;SDS011;2042;47.956;9.222;2024-03-02T13:01:26;4.43;;;4.03;;
4053;SDS011;2042;47.956;9.222;2024-03-02T13:03:53;5.27;;;4.77;;
4053;SDS011;2042;47.956;9.222;2024-03-02T13:06:20;4.60;;;4.30;;
4053;SDS011;2042;47.956;9.222;2024-03-02T13:08:48;5.33;;;4.83;;
4053;SDS011;2042;47.956;9.222;2024-03-02T13:11:15;5.50;;;5.10;;
4053;SDS011;2042;47.956;9.222;2024-03-02T13:13:41;4.90;;;4.50;;
4053;SDS011;2042;47.956;9.222;2024-03-02T13:16:08;5.43;;;4.93;;
4053;SDS011;2042;47.956;9.222;2024-03-02T13:18:35;5.23;;;4.83;;
4053;SDS011;2042;47.956;9.222;2024-03-02T13:21:01;4.60;;;4.20;;
4053;SDS011;2042;47.956;9.222;2024-03-02T13:23:26;5.20;;;4.80;;
4053;SDS011;2042;47.956;9.222;2024-03-02T13:25:55;4.50;;;4.20;;
4053;SDS011;2042;47.956;9.222;2024-03-02T13:28:22;5.00;;;4.60;;
4053;SDS011;2042;47.956;9.222;2024-03-02T13:30:48;5.10;;;4.70;;
4053;SDS011;2042;47.956;9.222;2024-03-02T13:33:14;5.20;;;4.70;;
4053;SDS011;2042;47.956;9.222;2024-03-02T13:35:40;4.30;;;4.00;;
4053;SDS011;2042;47.956;9.222;2024-03-02T13:38:05;3.90;;;3.70;;
4053;SDS011;2042;47.956;9.222;2024-03-02T13:40:31;4.43;;;4.13;;
4053;SDS011;2042;47.956;9.222;2024-03-02T13:43:00;4.03;;;3.73;;
4053;SDS011;2042;47.956;9.222;2024-03-02T13:45:27;4.57;;;4.27;;
4053;SDS011;2042;47.956;9.222;2024-03-02T13:47:53;4.27;;;3.90;;
4053;SDS011;2042;47.956;9.222;2024-03-02T13:50:19;4.37;;;4.07;;
4053;SDS011;2042;47.956;9.222;2024-03-02T13:52:45;5.00;;;4.60;;
4053;SDS011;2042;47.956;9.222;2024-03-02T13:55:10;4.50;;;4.10;;
4053;SDS011;2042;47.956;9.222;2024-03-02T13:57:36;6.00;;;5.43;;
4053;SDS011;2042;47.956;9.222;2024-03-02T14:00:02;4.93;;;4.53;;
4053;SDS011;2042;47.956;9.222;2024-03-02T14:02:28;5.10;;;4.70;;
4053;SDS011;2042;47.956;9.222;2024-03-02T14:04:54;4.97;;;4.50;;
4053;SDS011;2042;47.956;9.222;2024-03-02T14:07:20;5.27;;;4.87;;
4053;SDS011;2042;47.956;9.222;2024-03-02T14:09:46;4.07;;;3.77;;
4053;SDS011;2042;47.956;9.222;2024-03-02T14:12:12;4.63;;;4.23;;
4053;SDS011;2042;47.956;9.222;2024-03-02T14:14:38;4.60;;;4.13;;
4053;SDS011;2042;47.956;9.222;2024-03-02T14:17:04;4.87;;;4.47;;
4053;SDS011;2042;47.956;9.222;2024-03-02T14:19:31;4.20;;;3.90;;
4053;SDS011;2042;47.956;9.222;2024-03-02T14:21:57;4.03;;;3.73;;
4053;SDS011;2042;47.956;9.222;2024-03-02T14:24:23;4.30;;;3.90;;
4053;SDS011;2042;47.956;9.222;2024-03-02T14:26:51;4.17;;;3.77;;
4053;SDS011;2042;47.956;9.222;2024-03-02T14:29:17;4.37;;;3.97;;
4053;SDS011;2042;47.956;9.222;2024-03-02T14:31:43;7.77;;;4.03;;
4053;SDS011;2042;47.956;9.222;2024-03-02T14:34:13;5.07;;;4.57;;
4053;SDS011;2042;47.956;9.222;2024-03-02T14:36:39;5.10;;;4.60;;
4053;SDS011;2042;47.956;9.222;2024-03-02T14:39:05;4.17;;;3.87;;
4053;SDS011;2042;47.956;9.222;2024-03-02T14:41:35;4.40;;;4.00;;
4053;SDS011;2042;47.956;9.222;2024-03-02T14:44:01;4.53;;;4.13;;
4053;SDS011;2042;47.956;9.222;2024-03-02T14:46:27;4.50;;;4.10;;
4053;SDS011;2042;47.956;9.222;2024-03-02T14:48:53;5.17;;;4.67;;
4053;SDS011;2042;47.956;9.222;2024-03-02T14:51:19;6.43;;;5.30;;
4053;SDS011;2042;47.956;9.222;2024-03-02T14:53:45;4.30;;;3.90;;
4053;SDS011;2042;47.956;9.222;2024-03-02T14:56:10;5.23;;;4.50;;
4053;SDS011;2042;47.956;9.222;2024-03-02T14:58:38;3.93;;;3.50;;
4053;SDS011;2042;47.956;9.222;2024-03-02T15:01:03;3.77;;;3.47;;
4053;SDS011;2042;47.956;9.222;2024-03-02T15:03:30;4.93;;;3.90;;
4053;SDS011;2042;47.956;9.222;2024-03-02T15:05:56;4.70;;;3.97;;
4053;SDS011;2042;47.956;9.222;2024-03-02T15:08:22;5.43;;;4.43;;
4053;SDS011;2042;47.956;9.222;2024-03-02T15:10:48;5.90;;;4.23;;
4053;SDS011;2042;47.956;9.222;2024-03-02T15:13:14;5.07;;;4.67;;
4053;SDS011;2042;47.956;9.222;2024-03-02T15:15:40;3.93;;;3.50;;
4053;SDS011;2042;47.956;9.222;2024-03-02T15:18:06;5.30;;;4.17;;
4053;SDS011;2042;47.956;9.222;2024-03-02T15:20:33;4.50;;;3.23;;
4053;SDS011;2042;47.956;9.222;2024-03-02T15:22:58;3.87;;;3.50;;
4053;SDS011;2042;47.956;9.222;2024-03-02T15:25:24;3.57;;;3.27;;
4053;SDS011;2042;47.956;9.222;2024-03-02T15:27:50;4.10;;;3.70;;
4053;SDS011;2042;47.956;9.222;2024-03-02T15:30:15;4.17;;;3.87;;